WetterOnline ( https://www.wetteronline.de )

Wetter aktuell Soltau

Aktuelles Wetter: Soltau (76m)

6-stündlich | Neueste Meldungen
Ortszeit Temperatur Wetter
Do, 26.11. 1:00 3.3° C bedeckt
Mi, 25.11. 19:00 3.6° C bewölkt
Mi, 25.11. 13:00 6.3° C leicht bewölkt
Mi, 25.11. 7:00 1.0° C bewölkt
Mi, 25.11. 1:00 2.1° C bedeckt
Di, 24.11. 19:00 5.5° C wolkig
Di, 24.11. 13:00 7.4° C bedeckt
Di, 24.11. 7:00 3.3° C bedeckt
Ortszeit Temperatur Wetter
Do, 26.11. 2:30 4.1° C bedeckt
Do, 26.11. 2:20 4.1° C bedeckt
Do, 26.11. 2:10 4.0° C bedeckt
Do, 26.11. 2:00 3.9° C bedeckt
Do, 26.11. 1:50 3.9° C bedeckt
Do, 26.11. 1:40 3.9° C bedeckt
Do, 26.11. 1:30 3.8° C bedeckt
Do, 26.11. 1:00 3.3° C bedeckt
Ortszeit Relative Feuchte Sichtweite
Do, 26.11. 1:00 93% 8 km
Mi, 25.11. 19:00 91% 13 km
Mi, 25.11. 13:00 81% 20 km
Mi, 25.11. 7:00 97% 6 km
Mi, 25.11. 1:00 95% 11 km
Di, 24.11. 19:00 91% 24 km
Di, 24.11. 13:00 83% 21 km
Di, 24.11. 7:00 92% 14 km
Ortszeit Relative Feuchte Sichtweite
Do, 26.11. 2:30 93% 9 km
Do, 26.11. 2:20 93% -
Do, 26.11. 2:10 92% -
Do, 26.11. 2:00 91% 9 km
Do, 26.11. 1:50 91% -
Do, 26.11. 1:40 91% -
Do, 26.11. 1:30 92% 10 km
Do, 26.11. 1:00 93% 8 km
Ortszeit Niederschlagsmenge Niederschlagsart
Do, 26.11. 1:00 0.0 l/m2 in 6 Std. -
Mi, 25.11. 19:00 0.0 l/m2 in 12 Std. -
Mi, 25.11. 13:00 0.0 l/m2 in 6 Std. -
Mi, 25.11. 7:00 0.0 l/m2 in 12 Std. -
Mi, 25.11. 1:00 0.0 l/m2 in 6 Std. -
Di, 24.11. 19:00 0.0 l/m2 in 12 Std. -
Di, 24.11. 13:00 0.0 l/m2 in 6 Std. -
Di, 24.11. 7:00 0.0 l/m2 in 12 Std. -
Ortszeit Niederschlagsmenge Niederschlagsart
Do, 26.11. 2:30 0.0 l/m2 in 1 Std. -
Do, 26.11. 2:20 keine Meldung -
Do, 26.11. 2:10 keine Meldung -
Do, 26.11. 2:00 0.0 l/m2 in 1 Std. -
Do, 26.11. 1:50 keine Meldung -
Do, 26.11. 1:40 keine Meldung -
Do, 26.11. 1:30 0.0 l/m2 in 1 Std. -
Do, 26.11. 1:00 0.0 l/m2 in 1 Std. -
Ortszeit Stärke Spitze Richtung
km/h Bft. km/h Grad Sektor
Do, 26.11. 1:00 7 2 15 200° S
Mi, 25.11. 19:00 7 2 14 180° S
Mi, 25.11. 13:00 13 3 17 190° S
Mi, 25.11. 7:00 6 1 17 170° S
Mi, 25.11. 1:00 6 1 26 160° S
Di, 24.11. 19:00 7 2 25 170° S
Di, 24.11. 13:00 15 3 31 230° SW
Di, 24.11. 7:00 11 2 22 200° S
Ortszeit Stärke Spitze Richtung
km/h Bft. km/h Grad Sektor
Do, 26.11. 2:30 7 2 14 200° S
Do, 26.11. 2:20 7 2 - 200° S
Do, 26.11. 2:10 7 2 - 200° S
Do, 26.11. 2:00 11 2 18 200° S
Do, 26.11. 1:50 11 2 - 200° S
Do, 26.11. 1:40 11 2 - 210° SW
Do, 26.11. 1:30 11 2 17 200° S
Do, 26.11. 1:00 7 2 15 200° S
Ortszeit Untergrenze Bedeckung Gattung
total tief tief mittel hoch
Do, 26.11. 1:00 840 m 8/8 8/8 - - -
Mi, 25.11. 19:00 6000 m 7/8 7/8 - - -
Mi, 25.11. 13:00 7500 m 7/8 0/8 - - -
Mi, 25.11. 7:00 6300 m 7/8 8/8 - - -
Mi, 25.11. 1:00 5400 m 8/8 8/8 - - -
Di, 24.11. 19:00 1140 m 7/8 2/8 - - -
Di, 24.11. 13:00 390 m 8/8 8/8 - - -
Di, 24.11. 7:00 300 m 8/8 8/8 - - -
Ortszeit Bedeckungsgrad in Achtel und Wolkenuntergrenze
Do, 26.11. 2:30 6(360m) 8(510m)
Do, 26.11. 2:20 6(360m) 8(510m)
Do, 26.11. 2:10 8(480m)
Do, 26.11. 2:00 8(600m)
Do, 26.11. 1:50 8(600m)
Do, 26.11. 1:40 8(660m)
Do, 26.11. 1:30 8(780m) 8(810m)
Do, 26.11. 1:00 8(840m)
Ortszeit Luftdruck NN (hPa) Tendenz (hPa in 3 Std.)
Do, 26.11. 1:00 1019 + 0,3
Mi, 25.11. 19:00 1018 + 0,5
Mi, 25.11. 13:00 1018 - 0,4
Mi, 25.11. 7:00 1018 - 0,4
Mi, 25.11. 1:00 1020 - 1,3
Di, 24.11. 19:00 1022 - 0,6
Di, 24.11. 13:00 1023 - 0,9
Di, 24.11. 7:00 1025 - 1,0
Ortszeit Luftdruck NN (hPa) Tendenz (hPa in 3 Std.)
Do, 26.11. 2:30 1019 + 0,3
Do, 26.11. 2:20 1019 keine Meldung
Do, 26.11. 2:10 1019 keine Meldung
Do, 26.11. 2:00 1019 + 0,1
Do, 26.11. 1:50 1019 keine Meldung
Do, 26.11. 1:40 1019 keine Meldung
Do, 26.11. 1:30 1019 + 0,1
Do, 26.11. 1:00 1019 + 0,3
Ortszeit Schneehöhe (cm)
Do, 26.11. 1:00 0
Mi, 25.11. 19:00 0
Mi, 25.11. 13:00 0
Mi, 25.11. 7:00 0
Mi, 25.11. 1:00 0
Di, 24.11. 19:00 0
Di, 24.11. 13:00 0
Di, 24.11. 7:00 0
Ortszeit Schneehöhe (cm)
Do, 26.11. 2:30 0
Do, 26.11. 2:20 0
Do, 26.11. 2:10 0
Do, 26.11. 2:00 0
Do, 26.11. 1:50 0
Do, 26.11. 1:40 0
Do, 26.11. 1:30 0
Do, 26.11. 1:00 0
Link zu dieser Seite / Seite empfehlen

Das Wetter in ...